Anaconda, Montana
Current Conditions -  °F | °C
As of 11:53 AM on Friday 28 Nov 2014 (Local Time) from KBTM Reporting Station
Overcast Overcast  
Wind Chill: 35°   Ceiling: 4300
Heat Index: 43°   Visibility: 10mi
Dew Point: 29°   Wind: 17mph
Humidity: 58%   Direction: 180°S
Pressure: 29.68"   Gusts: NA
Location:  46.13°N, 112.94°W
Report Text: KBTM 281853Z AUTO 18015KT 10SM OVC043 06/M02 A2968 RMK AO2 SLP037 T00611017
Loading
Personal Weather Stations






























Interactive Weather Map New forecast layout! Learn more

10-Day Weather Forecast

Advertisements
Track Severe Weather on mobile